Time,TemperatureF,DewpointF,PressureIn,WindDirection,WindDirectionDegrees,WindSpeedMPH,WindSpeedGustMPH,Humidity,HourlyPrecipIn,Conditions,Clouds,dailyrainin,SoftwareType,DateUTC
2013-05-03 00:04:00,71.4,65.7,29.80,North,360,0.0,0.0,82,0.00,,,0.00,WSDL version 420,2013-05-03 04:04:00,
2013-05-03 00:09:00,71.2,65.7,29.80,East,90,0.0,0.0,83,0.00,,,0.00,WSDL version 420,2013-05-03 04:09:00,
2013-05-03 00:14:00,71.2,65.9,29.80,ENE,73,1.2,2.2,83,0.00,,,0.00,WSDL version 420,2013-05-03 04:14:00,
2013-05-03 00:19:00,71.4,66.1,29.77,SE,135,2.6,2.7,83,0.00,,,0.00,WSDL version 420,2013-05-03 04:19:00,
2013-05-03 00:24:00,71.6,66.1,29.77,East,90,2.5,2.7,82,0.00,,,0.00,WSDL version 420,2013-05-03 04:24:00,
2013-05-03 00:29:00,71.8,65.6,29.77,ESE,113,4.3,4.3,80,0.00,,,0.00,WSDL version 420,2013-05-03 04:29:00,
2013-05-03 00:34:00,71.8,65.0,29.77,East,98,3.4,5.6,79,0.00,,,0.00,WSDL version 420,2013-05-03 04:34:00,
2013-05-03 00:39:00,71.8,64.9,29.77,East,90,2.7,5.6,79,0.00,,,0.00,WSDL version 420,2013-05-03 04:39:00,
2013-05-03 00:44:00,71.6,64.4,29.77,ENE,68,3.4,3.6,78,0.00,,,0.00,WSDL version 420,2013-05-03 04:44:00,
2013-05-03 00:49:00,71.6,64.7,29.77,NE,45,3.6,3.8,79,0.00,,,0.00,WSDL version 420,2013-05-03 04:49:00,
2013-05-03 00:54:00,71.6,64.7,29.77,NE,45,3.6,3.8,79,0.00,,,0.00,WSDL version 420,2013-05-03 04:54:00,
2013-05-03 00:59:00,71.4,64.8,29.77,North,0,0.0,4.9,80,0.00,,,0.00,WSDL version 420,2013-05-03 04:59:00,
2013-05-03 01:04:00,71.4,64.9,29.74,East,90,3.1,4.9,80,0.00,,,0.00,WSDL version 420,2013-05-03 05:04:00,
2013-05-03 01:09:00,71.4,64.9,29.74,ENE,68,3.6,4.9,80,0.00,,,0.00,WSDL version 420,2013-05-03 05:09:00,
2013-05-03 01:14:00,71.2,64.8,29.74,ENE,68,3.5,4.3,80,0.00,,,0.00,WSDL version 420,2013-05-03 05:14:00,
2013-05-03 01:19:00,71.2,64.8,29.74,ENE,68,2.5,3.6,80,0.00,,,0.00,WSDL version 420,2013-05-03 05:19:00,
2013-05-03 01:24:00,71.2,64.7,29.74,NE,45,1.6,3.1,80,0.00,,,0.00,WSDL version 420,2013-05-03 05:24:00,
2013-05-03 01:29:00,71.1,64.7,29.74,NE,56,1.6,3.1,81,0.00,,,0.00,WSDL version 420,2013-05-03 05:29:00,
2013-05-03 01:34:00,70.9,65.0,29.74,NNW,330,2.6,3.4,82,0.00,,,0.00,WSDL version 420,2013-05-03 05:34:00,
2013-05-03 01:39:00,70.9,65.5,29.74,ENE,68,1.1,3.4,84,0.00,,,0.00,WSDL version 420,2013-05-03 05:39:00,
2013-05-03 01:44:00,70.9,66.1,29.74,ENE,68,3.4,3.4,86,0.00,,,0.00,WSDL version 420,2013-05-03 05:44:00,
2013-05-03 01:49:00,70.8,66.4,29.71,North,360,1.7,3.1,86,0.00,,,0.00,WSDL version 420,2013-05-03 05:49:00,
2013-05-03 01:54:00,70.7,66.7,29.71,NE,45,3.1,3.1,88,0.00,,,0.00,WSDL version 420,2013-05-03 05:54:00,
2013-05-03 01:59:00,70.7,66.9,29.71,NE,45,0.9,3.1,88,0.00,,,0.00,WSDL version 420,2013-05-03 05:59:00,
2013-05-03 02:04:00,70.7,66.9,29.71,ENE,68,0.0,3.1,88,0.00,,,0.00,WSDL version 420,2013-05-03 06:04:00,
2013-05-03 02:09:00,70.5,66.7,29.71,ENE,68,0.0,2.0,88,0.00,,,0.00,WSDL version 420,2013-05-03 06:09:00,
2013-05-03 02:14:00,70.5,66.7,29.71,NNW,345,0.6,1.1,88,0.00,,,0.00,WSDL version 420,2013-05-03 06:14:00,
2013-05-03 02:19:00,70.4,67.0,29.71,ENE,68,0.0,1.3,89,0.00,,,0.00,WSDL version 420,2013-05-03 06:19:00,
2013-05-03 02:24:00,70.3,66.9,29.71,ENE,75,0.0,1.3,89,0.00,,,0.00,WSDL version 420,2013-05-03 06:24:00,
2013-05-03 02:29:00,70.3,66.8,29.71,SSE,165,0.0,0.0,89,0.00,,,0.00,WSDL version 420,2013-05-03 06:29:00,
2013-05-03 02:34:00,70.2,66.8,29.68,NE,45,0.0,2.7,90,0.00,,,0.00,WSDL version 420,2013-05-03 06:34:00,
2013-05-03 02:39:00,70.2,67.1,29.68,North,360,1.6,2.7,90,0.00,,,0.00,WSDL version 420,2013-05-03 06:39:00,
2013-05-03 02:44:00,70.3,67.3,29.68,NNE,30,1.6,2.9,90,0.00,,,0.00,WSDL version 420,2013-05-03 06:44:00,
2013-05-03 02:49:00,70.5,67.7,29.68,North,360,0.0,2.9,91,0.00,,,0.00,WSDL version 420,2013-05-03 06:49:00,
2013-05-03 02:54:00,70.5,67.8,29.68,ENE,68,2.7,2.7,91,0.00,,,0.00,WSDL version 420,2013-05-03 06:54:00,
2013-05-03 02:59:00,70.5,67.8,29.68,ESE,113,2.0,2.9,91,0.00,,,0.00,WSDL version 420,2013-05-03 06:59:00,
2013-05-03 03:04:00,70.5,67.6,29.65,NE,45,1.8,2.9,90,0.00,,,0.00,WSDL version 420,2013-05-03 07:04:00,
2013-05-03 03:09:00,70.7,67.6,29.65,ENE,59,0.0,2.9,90,0.00,,,0.00,WSDL version 420,2013-05-03 07:09:00,
2013-05-03 03:14:00,70.7,67.3,29.65,NNE,30,1.1,1.1,89,0.00,,,0.00,WSDL version 420,2013-05-03 07:14:00,
2013-05-03 03:19:00,70.7,66.8,29.65,ENE,60,1.8,1.8,87,0.00,,,0.00,WSDL version 420,2013-05-03 07:19:00,
2013-05-03 03:24:00,70.7,66.3,29.65,NE,53,0.6,2.9,86,0.00,,,0.00,WSDL version 420,2013-05-03 07:24:00,
2013-05-03 03:29:00,70.7,66.0,29.65,ENE,68,1.3,2.9,84,0.00,,,0.00,WSDL version 420,2013-05-03 07:29:00,
2013-05-03 03:34:00,70.5,64.9,29.68,ENE,68,2.3,2.3,81,0.00,,,0.00,WSDL version 420,2013-05-03 07:34:00,
2013-05-03 03:39:00,70.5,64.6,29.68,NNE,17,0.6,2.2,82,0.00,,,0.00,WSDL version 420,2013-05-03 07:39:00,
2013-05-03 03:44:00,70.3,64.5,29.68,WNW,300,0.0,1.6,81,0.00,,,0.00,WSDL version 420,2013-05-03 07:44:00,
2013-05-03 03:49:00,70.0,64.1,29.68,West,270,0.0,2.9,82,0.00,,,0.00,WSDL version 420,2013-05-03 07:49:00,
2013-05-03 03:54:00,69.8,64.1,29.68,WSW,239,0.0,2.9,82,0.00,,,0.00,WSDL version 420,2013-05-03 07:54:00,
2013-05-03 03:59:00,69.6,64.0,29.68,WSW,242,0.0,2.0,83,0.00,,,0.00,WSDL version 420,2013-05-03 07:59:00,
2013-05-03 04:04:00,69.4,64.1,29.68,South,180,0.0,0.9,83,0.00,,,0.00,WSDL version 420,2013-05-03 08:04:00,
2013-05-03 04:09:00,69.3,64.2,29.68,WSW,248,0.9,0.9,84,0.00,,,0.00,WSDL version 420,2013-05-03 08:09:00,
2013-05-03 04:14:00,69.3,64.5,29.68,SSW,212,0.0,1.1,86,0.00,,,0.00,WSDL version 420,2013-05-03 08:14:00,
2013-05-03 04:19:00,69.3,64.7,29.68,SW,225,0.0,1.1,86,0.00,,,0.00,WSDL version 420,2013-05-03 08:19:00,
2013-05-03 04:24:00,69.2,64.7,29.68,SW,225,0.0,0.0,86,0.00,,,0.00,WSDL version 420,2013-05-03 08:24:00,
2013-05-03 04:29:00,69.0,64.5,29.68,SW,225,0.0,0.0,86,0.00,,,0.00,WSDL version 420,2013-05-03 08:29:00,
2013-05-03 04:34:00,68.9,64.8,29.68,SW,225,0.0,0.0,87,0.00,,,0.00,WSDL version 420,2013-05-03 08:34:00,
2013-05-03 04:39:00,68.7,64.6,29.68,SW,225,0.0,0.0,87,0.00,,,0.00,WSDL version 420,2013-05-03 08:39:00,
2013-05-03 04:44:00,68.7,64.8,29.68,SW,225,0.0,0.0,88,0.00,,,0.00,WSDL version 420,2013-05-03 08:44:00,
2013-05-03 04:49:00,68.7,65.0,29.68,SSE,158,0.0,0.0,88,0.00,,,0.00,WSDL version 420,2013-05-03 08:49:00,
2013-05-03 04:54:00,68.7,65.0,29.68,SE,129,0.0,1.6,88,0.00,,,0.00,WSDL version 420,2013-05-03 08:54:00,
2013-05-03 04:59:00,68.7,65.3,29.68,ENE,60,1.3,2.2,89,0.00,,,0.00,WSDL version 420,2013-05-03 08:59:00,
2013-05-03 05:04:00,68.9,65.5,29.68,SSW,193,2.2,2.9,89,0.00,,,0.00,WSDL version 420,2013-05-03 09:04:00,
2013-05-03 05:09:00,69.0,65.6,29.68,South,180,0.0,2.9,89,0.00,,,0.00,WSDL version 420,2013-05-03 09:09:00,
2013-05-03 05:14:00,69.0,65.6,29.68,SW,225,1.0,1.1,89,0.00,,,0.00,WSDL version 420,2013-05-03 09:14:00,
2013-05-03 05:19:00,69.0,65.6,29.71,NE,56,2.0,3.1,89,0.00,,,0.00,WSDL version 420,2013-05-03 09:19:00,
2013-05-03 05:24:00,69.2,66.2,29.71,SE,143,0.9,3.1,90,0.00,,,0.00,WSDL version 420,2013-05-03 09:24:00,
2013-05-03 05:29:00,69.3,66.1,29.71,SE,135,0.0,2.9,89,0.00,,,0.00,WSDL version 420,2013-05-03 09:29:00,
2013-05-03 05:34:00,69.3,65.8,29.68,ENE,68,0.0,1.6,89,0.00,,,0.00,WSDL version 420,2013-05-03 09:34:00,
2013-05-03 05:39:00,69.3,65.8,29.68,ENE,63,0.7,1.3,89,0.00,,,0.00,WSDL version 420,2013-05-03 09:39:00,
2013-05-03 05:44:00,69.3,65.8,29.68,SSE,158,0.0,1.6,89,0.00,,,0.00,WSDL version 420,2013-05-03 09:44:00,
2013-05-03 05:49:00,69.1,65.7,29.68,South,180,0.0,1.6,89,0.00,,,0.00,WSDL version 420,2013-05-03 09:49:00,
2013-05-03 05:54:00,69.0,65.6,29.68,South,180,0.0,0.0,89,0.00,,,0.00,WSDL version 420,2013-05-03 09:54:00,
2013-05-03 05:59:00,68.9,65.5,29.68,East,90,0.0,0.0,89,0.00,,,0.00,WSDL version 420,2013-05-03 09:59:00,
2013-05-03 06:04:00,68.9,65.5,29.68,WSW,248,0.0,0.0,89,0.00,,,0.00,WSDL version 420,2013-05-03 10:04:00,
2013-05-03 06:09:00,68.8,65.7,29.68,WSW,248,0.0,0.0,90,0.00,,,0.00,WSDL version 420,2013-05-03 10:09:00,
2013-05-03 06:14:00,68.5,65.1,29.68,SW,225,0.0,0.0,89,0.00,,,0.00,WSDL version 420,2013-05-03 10:14:00,
2013-05-03 06:19:00,68.4,65.1,29.68,SSW,203,0.0,0.0,90,0.00,,,0.00,WSDL version 420,2013-05-03 10:19:00,
2013-05-03 06:24:00,68.3,65.3,29.68,SSW,203,0.0,0.0,90,0.00,,,0.00,WSDL version 420,2013-05-03 10:24:00,
2013-05-03 06:29:00,68.2,65.1,29.68,South,180,0.5,1.6,90,0.00,,,0.00,WSDL version 420,2013-05-03 10:29:00,
2013-05-03 06:34:00,68.2,65.1,29.68,South,173,0.8,2.5,90,0.00,,,0.00,WSDL version 420,2013-05-03 10:34:00,
2013-05-03 06:39:00,68.1,65.1,29.68,South,188,2.0,3.4,90,0.00,,,0.00,WSDL version 420,2013-05-03 10:39:00,
2013-05-03 06:44:00,68.2,65.5,29.68,South,186,2.0,3.4,91,0.00,,,0.00,WSDL version 420,2013-05-03 10:44:00,
2013-05-03 06:49:00,68.2,65.5,29.68,South,174,0.6,2.9,91,0.00,,,0.00,WSDL version 420,2013-05-03 10:49:00,
2013-05-03 06:54:00,68.0,65.3,29.68,South,180,0.0,2.2,91,0.00,,,0.00,WSDL version 420,2013-05-03 10:54:00,
2013-05-03 06:59:00,68.0,65.3,29.68,South,180,0.0,2.2,91,0.00,,,0.00,WSDL version 420,2013-05-03 10:59:00,
2013-05-03 07:04:00,68.0,65.3,29.68,South,170,0.6,2.9,91,0.00,,,0.00,WSDL version 420,2013-05-03 11:04:00,
2013-05-03 07:09:00,68.0,65.3,29.68,South,180,1.4,2.9,91,0.00,,,0.00,WSDL version 420,2013-05-03 11:09:00,
2013-05-03 07:14:00,67.9,65.4,29.68,South,185,0.6,2.7,92,0.00,,,0.00,WSDL version 420,2013-05-03 11:14:00,
2013-05-03 07:19:00,67.9,65.4,29.68,South,180,1.0,2.5,92,0.00,,,0.00,WSDL version 420,2013-05-03 11:19:00,
2013-05-03 07:24:00,68.0,65.7,29.68,South,180,0.0,2.2,92,0.00,,,0.00,WSDL version 420,2013-05-03 11:24:00,
2013-05-03 07:29:00,68.3,65.9,29.68,South,180,0.0,2.5,92,0.00,,,0.00,WSDL version 420,2013-05-03 11:29:00,
2013-05-03 07:34:00,68.4,66.0,29.68,South,180,1.6,3.4,92,0.00,,,0.00,WSDL version 420,2013-05-03 11:34:00,
2013-05-03 07:39:00,68.5,66.2,29.68,South,177,2.0,3.6,92,0.00,,,0.00,WSDL version 420,2013-05-03 11:39:00,
2013-05-03 07:44:00,68.8,66.4,29.68,SSW,194,0.4,3.6,92,0.00,,,0.00,WSDL version 420,2013-05-03 11:44:00,
2013-05-03 07:49:00,69.0,66.7,29.68,SSE,154,1.7,3.1,92,0.00,,,0.00,WSDL version 420,2013-05-03 11:49:00,
2013-05-03 07:54:00,69.4,67.2,29.68,South,183,2.0,3.4,93,0.00,,,0.00,WSDL version 420,2013-05-03 11:54:00,
2013-05-03 07:59:00,69.7,67.5,29.68,South,174,2.7,4.0,92,0.00,,,0.00,WSDL version 420,2013-05-03 11:59:00,
2013-05-03 08:04:00,70.0,67.6,29.68,SSE,164,2.7,4.0,92,0.00,,,0.00,WSDL version 420,2013-05-03 12:04:00,
2013-05-03 08:09:00,70.3,67.9,29.68,South,176,1.6,3.8,92,0.00,,,0.00,WSDL version 420,2013-05-03 12:09:00,
2013-05-03 08:14:00,70.7,68.3,29.68,SSE,167,2.6,4.3,92,0.00,,,0.00,WSDL version 420,2013-05-03 12:14:00,
2013-05-03 08:19:00,71.2,68.5,29.68,SSW,203,2.2,4.3,91,0.00,,,0.00,WSDL version 420,2013-05-03 12:19:00,
2013-05-03 08:24:00,71.8,69.0,29.68,ENE,72,0.7,3.4,90,0.00,,,0.00,WSDL version 420,2013-05-03 12:24:00,
2013-05-03 08:29:00,72.5,69.4,29.68,SW,221,0.0,2.9,90,0.00,,,0.00,WSDL version 420,2013-05-03 12:29:00,
2013-05-03 08:34:00,73.5,70.4,29.68,SSE,149,0.6,2.9,90,0.00,,,0.00,WSDL version 420,2013-05-03 12:34:00,
2013-05-03 08:39:00,74.8,71.2,29.68,NE,45,0.9,2.0,88,0.00,,,0.00,WSDL version 420,2013-05-03 12:39:00,
2013-05-03 08:44:00,76.8,71.8,29.68,NNW,338,0.0,1.3,82,0.00,,,0.00,WSDL version 420,2013-05-03 12:44:00,
2013-05-03 08:49:00,78.4,72.1,29.68,SSW,198,0.9,3.4,80,0.00,,,0.00,WSDL version 420,2013-05-03 12:49:00,
2013-05-03 08:54:00,79.9,72.1,29.68,East,98,1.0,3.4,76,0.00,,,0.00,WSDL version 420,2013-05-03 12:54:00,
2013-05-03 08:59:00,81.3,71.1,29.68,North,360,0.0,3.4,70,0.00,,,0.00,WSDL version 420,2013-05-03 12:59:00,
2013-05-03 09:04:00,81.3,70.0,29.71,NW,323,0.4,1.3,67,0.00,,,0.00,WSDL version 420,2013-05-03 13:04:00,
2013-05-03 09:09:00,79.5,67.5,29.71,WSW,253,1.5,2.7,67,0.00,,,0.00,WSDL version 420,2013-05-03 13:09:00,
2013-05-03 09:14:00,78.5,66.9,29.71,SW,225,1.3,2.7,68,0.00,,,0.00,WSDL version 420,2013-05-03 13:14:00,
2013-05-03 09:19:00,78.0,66.6,29.71,NE,53,0.8,4.7,68,0.00,,,0.00,WSDL version 420,2013-05-03 13:19:00,
2013-05-03 09:24:00,77.1,66.0,29.71,West,259,0.7,4.7,69,0.00,,,0.00,WSDL version 420,2013-05-03 13:24:00,
2013-05-03 09:29:00,76.9,66.4,29.71,SW,233,0.0,2.7,70,0.00,,,0.00,WSDL version 420,2013-05-03 13:29:00,
2013-05-03 09:34:00,79.5,69.2,29.71,South,186,1.0,2.7,71,0.00,,,0.00,WSDL version 420,2013-05-03 13:34:00,
2013-05-03 09:39:00,81.2,70.5,29.71,South,171,2.1,4.9,68,0.00,,,0.00,WSDL version 420,2013-05-03 13:39:00,
2013-05-03 09:44:00,81.3,69.4,29.71,WSW,241,1.9,4.9,67,0.00,,,0.00,WSDL version 420,2013-05-03 13:44:00,
2013-05-03 09:49:00,80.1,68.0,29.71,NNE,15,1.0,4.3,66,0.00,,,0.00,WSDL version 420,2013-05-03 13:49:00,
2013-05-03 09:54:00,80.1,68.1,29.71,NE,39,0.0,2.7,67,0.00,,,0.00,WSDL version 420,2013-05-03 13:54:00,
2013-05-03 09:59:00,80.2,68.2,29.71,SW,225,0.9,2.0,66,0.00,,,0.00,WSDL version 420,2013-05-03 13:59:00,
2013-05-03 10:04:00,80.7,68.3,29.71,WSW,243,0.0,3.8,66,0.00,,,0.00,WSDL version 420,2013-05-03 14:04:00,
2013-05-03 10:09:00,80.6,68.1,29.71,SSE,153,3.1,6.0,65,0.00,,,0.00,WSDL version 420,2013-05-03 14:09:00,
2013-05-03 10:14:00,79.9,67.1,29.71,South,180,1.1,6.0,65,0.00,,,0.00,WSDL version 420,2013-05-03 14:14:00,
2013-05-03 10:19:00,79.5,66.9,29.71,SSW,210,0.0,1.6,65,0.00,,,0.00,WSDL version 420,2013-05-03 14:19:00,
2013-05-03 10:24:00,80.2,67.7,29.71,SE,146,0.0,5.6,66,0.00,,,0.00,WSDL version 420,2013-05-03 14:24:00,
2013-05-03 10:29:00,81.4,68.3,29.71,ENE,61,0.3,5.6,65,0.00,,,0.00,WSDL version 420,2013-05-03 14:29:00,
2013-05-03 10:34:00,82.4,69.2,29.71,ENE,68,1.1,4.0,64,0.00,,,0.00,WSDL version 420,2013-05-03 14:34:00,
2013-05-03 10:39:00,81.8,67.9,29.71,SW,225,1.5,3.4,63,0.00,,,0.00,WSDL version 420,2013-05-03 14:39:00,
2013-05-03 10:44:00,81.5,67.5,29.71,SW,228,1.3,3.4,63,0.00,,,0.00,WSDL version 420,2013-05-03 14:44:00,
2013-05-03 10:49:00,82.5,68.6,29.71,ENE,68,1.1,2.9,63,0.00,,,0.00,WSDL version 420,2013-05-03 14:49:00,
2013-05-03 10:54:00,81.3,66.7,29.71,SSW,196,1.2,3.4,61,0.00,,,0.00,WSDL version 420,2013-05-03 14:54:00,
2013-05-03 10:59:00,81.4,67.1,29.71,SSW,210,1.2,4.0,62,0.00,,,0.00,WSDL version 420,2013-05-03 14:59:00,
2013-05-03 11:04:00,81.0,66.8,29.74,WSW,256,1.3,4.0,62,0.00,,,0.00,WSDL version 420,2013-05-03 15:04:00,
2013-05-03 11:09:00,81.5,67.5,29.74,NW,315,1.3,2.7,62,0.00,,,0.00,WSDL version 420,2013-05-03 15:09:00,
2013-05-03 11:14:00,81.8,68.1,29.74,ESE,116,0.9,2.0,63,0.00,,,0.00,WSDL version 420,2013-05-03 15:14:00,
2013-05-03 11:19:00,82.3,68.0,29.71,WNW,283,2.1,3.6,60,0.00,,,0.00,WSDL version 420,2013-05-03 15:19:00,
2013-05-03 11:24:00,82.3,67.2,29.71,SW,214,1.2,3.8,60,0.00,,,0.00,WSDL version 420,2013-05-03 15:24:00,
2013-05-03 11:29:00,82.3,66.9,29.71,North,10,1.3,4.9,60,0.00,,,0.00,WSDL version 420,2013-05-03 15:29:00,
2013-05-03 11:34:00,82.1,66.1,29.71,NNE,17,1.1,4.9,59,0.00,,,0.00,WSDL version 420,2013-05-03 15:34:00,
2013-05-03 11:39:00,81.7,65.4,29.71,WSW,248,1.3,2.9,57,0.00,,,0.00,WSDL version 420,2013-05-03 15:39:00,
2013-05-03 11:44:00,81.2,65.2,29.71,SSW,208,1.8,3.1,59,0.00,,,0.00,WSDL version 420,2013-05-03 15:44:00,
2013-05-03 11:49:00,81.8,65.6,29.74,SSE,154,0.3,4.0,58,0.00,,,0.00,WSDL version 420,2013-05-03 15:49:00,
2013-05-03 11:54:00,82.9,66.8,29.74,South,191,0.0,4.0,59,0.00,,,0.00,WSDL version 420,2013-05-03 15:54:00,
2013-05-03 11:59:00,83.3,66.9,29.74,WNW,293,1.2,2.5,57,0.00,,,0.00,WSDL version 420,2013-05-03 15:59:00,
2013-05-03 12:04:00,83.4,65.7,29.71,NNE,23,2.3,3.4,55,0.00,,,0.00,WSDL version 420,2013-05-03 16:04:00,
2013-05-03 12:09:00,82.5,64.1,29.71,WNW,299,2.2,3.8,54,0.00,,,0.00,WSDL version 420,2013-05-03 16:09:00,
2013-05-03 12:14:00,83.3,65.4,29.71,ESE,116,1.9,4.3,55,0.00,,,0.00,WSDL version 420,2013-05-03 16:14:00,
2013-05-03 12:19:00,83.2,65.5,29.71,WSW,248,0.0,4.3,56,0.00,,,0.00,WSDL version 420,2013-05-03 16:19:00,
2013-05-03 12:24:00,82.9,65.3,29.71,SW,233,1.4,2.9,55,0.00,,,0.00,WSDL version 420,2013-05-03 16:24:00,
2013-05-03 12:29:00,83.4,65.4,29.71,SE,143,1.3,5.4,55,0.00,,,0.00,WSDL version 420,2013-05-03 16:29:00,
2013-05-03 12:34:00,84.2,66.6,29.71,NNE,15,3.1,5.4,55,0.00,,,0.00,WSDL version 420,2013-05-03 16:34:00,
2013-05-03 12:39:00,84.2,65.3,29.71,WNW,296,2.0,4.3,54,0.00,,,0.00,WSDL version 420,2013-05-03 16:39:00,
2013-05-03 12:44:00,85.2,67.4,29.71,SE,143,2.9,5.6,56,0.00,,,0.00,WSDL version 420,2013-05-03 16:44:00,
2013-05-03 12:49:00,85.9,67.7,29.71,North,349,1.6,5.6,53,0.00,,,0.00,WSDL version 420,2013-05-03 16:49:00,
2013-05-03 12:54:00,86.2,67.1,29.71,SE,131,2.1,4.3,53,0.00,,,0.00,WSDL version 420,2013-05-03 16:54:00,
2013-05-03 12:59:00,86.4,66.9,29.71,East,96,2.3,4.3,52,0.00,,,0.00,WSDL version 420,2013-05-03 16:59:00,
2013-05-03 13:04:00,86.8,67.2,29.68,SW,219,1.8,3.1,52,0.00,,,0.00,WSDL version 420,2013-05-03 17:04:00,
2013-05-03 13:09:00,87.0,66.2,29.68,North,357,1.5,3.8,48,0.00,,,0.00,WSDL version 420,2013-05-03 17:09:00,
2013-05-03 13:14:00,86.8,64.5,29.68,North,11,2.5,4.9,46,0.00,,,0.00,WSDL version 420,2013-05-03 17:14:00,
2013-05-03 13:19:00,86.1,63.1,29.68,NNW,338,2.3,4.9,47,0.00,,,0.00,WSDL version 420,2013-05-03 17:19:00,
2013-05-03 13:24:00,85.8,63.6,29.68,North,11,1.8,4.7,48,0.00,,,0.00,WSDL version 420,2013-05-03 17:24:00,
2013-05-03 13:29:00,86.1,63.5,29.68,SSW,212,1.0,4.9,48,0.00,,,0.00,WSDL version 420,2013-05-03 17:29:00,
2013-05-03 13:34:00,86.8,65.3,29.68,WSW,253,0.8,4.9,48,0.00,,,0.00,WSDL version 420,2013-05-03 17:34:00,
2013-05-03 13:39:00,86.2,63.5,29.68,West,270,0.0,4.0,47,0.00,,,0.00,WSDL version 420,2013-05-03 17:39:00,
2013-05-03 13:44:00,86.2,64.1,29.68,NNW,345,0.7,3.1,49,0.00,,,0.00,WSDL version 420,2013-05-03 17:44:00,
2013-05-03 13:49:00,86.7,64.9,29.68,NE,56,1.8,2.9,47,0.00,,,0.00,WSDL version 420,2013-05-03 17:49:00,
2013-05-03 13:54:00,86.9,64.5,29.68,SW,236,2.8,3.4,47,0.00,,,0.00,WSDL version 420,2013-05-03 17:54:00,
2013-05-03 13:59:00,87.0,64.8,29.68,NW,304,1.9,3.4,48,0.00,,,0.00,WSDL version 420,2013-05-03 17:59:00,
2013-05-03 14:04:00,86.9,64.5,29.68,North,352,2.5,3.4,48,0.00,,,0.00,WSDL version 420,2013-05-03 18:04:00,
2013-05-03 14:09:00,87.1,64.1,29.68,North,357,2.3,4.3,45,0.00,,,0.00,WSDL version 420,2013-05-03 18:09:00,
2013-05-03 14:14:00,86.8,62.1,29.68,NW,309,2.6,4.7,45,0.00,,,0.00,WSDL version 420,2013-05-03 18:14:00,
2013-05-03 14:19:00,87.2,64.0,29.68,SW,231,1.3,4.7,47,0.00,,,0.00,WSDL version 420,2013-05-03 18:19:00,
2013-05-03 14:24:00,87.2,63.4,29.68,West,268,1.2,3.1,44,0.00,,,0.00,WSDL version 420,2013-05-03 18:24:00,
2013-05-03 14:29:00,87.0,62.3,29.68,NNW,345,1.9,3.4,45,0.00,,,0.00,WSDL version 420,2013-05-03 18:29:00,
2013-05-03 14:34:00,87.1,63.5,29.68,NW,315,1.6,5.4,46,0.00,,,0.00,WSDL version 420,2013-05-03 18:34:00,
2013-05-03 14:39:00,87.4,63.5,29.68,South,183,2.4,6.0,45,0.00,,,0.00,WSDL version 420,2013-05-03 18:39:00,
2013-05-03 14:44:00,88.0,63.8,29.68,South,180,2.3,6.0,44,0.00,,,0.00,WSDL version 420,2013-05-03 18:44:00,
2013-05-03 14:49:00,88.3,64.2,29.68,North,5,2.8,5.6,44,0.00,,,0.00,WSDL version 420,2013-05-03 18:49:00,
2013-05-03 14:54:00,88.7,64.8,29.68,North,353,2.2,5.4,46,0.00,,,0.00,WSDL version 420,2013-05-03 18:54:00,
2013-05-03 14:59:00,88.5,64.0,29.68,West,281,2.8,4.9,44,0.00,,,0.00,WSDL version 420,2013-05-03 18:59:00,
2013-05-03 15:04:00,88.7,64.2,29.65,SSE,158,1.9,3.8,45,0.00,,,0.00,WSDL version 420,2013-05-03 19:04:00,
2013-05-03 15:09:00,89.0,64.5,29.65,SE,144,3.2,5.4,44,0.00,,,0.00,WSDL version 420,2013-05-03 19:09:00,
2013-05-03 15:14:00,89.0,63.8,29.65,SE,135,1.0,5.4,44,0.00,,,0.00,WSDL version 420,2013-05-03 19:14:00,
2013-05-03 15:19:00,89.0,63.1,29.62,SW,228,1.6,3.6,41,0.00,,,0.00,WSDL version 420,2013-05-03 19:19:00,
2013-05-03 15:29:00,89.2,64.1,29.62,South,176,2.0,4.0,44,0.00,,,0.00,WSDL version 420,2013-05-03 19:29:00,
2013-05-03 15:34:00,89.6,63.9,29.65,WNW,288,1.7,4.0,44,0.00,,,0.00,WSDL version 420,2013-05-03 19:34:00,
2013-05-03 15:39:00,89.5,64.3,29.65,West,263,0.3,2.7,43,0.00,,,0.00,WSDL version 420,2013-05-03 19:39:00,
2013-05-03 15:44:00,89.1,62.7,29.65,WNW,299,1.9,3.6,41,0.00,,,0.00,WSDL version 420,2013-05-03 19:44:00,
2013-05-03 15:49:00,88.9,62.8,29.62,SW,236,0.9,3.6,42,0.00,,,0.00,WSDL version 420,2013-05-03 19:49:00,
2013-05-03 15:54:00,89.3,63.6,29.62,East,93,0.4,2.9,43,0.00,,,0.00,WSDL version 420,2013-05-03 19:54:00,
2013-05-03 15:59:00,90.1,64.6,29.62,South,186,3.7,4.0,43,0.00,,,0.00,WSDL version 420,2013-05-03 19:59:00,
2013-05-03 16:04:00,90.4,64.0,29.62,North,360,1.3,5.6,41,0.00,,,0.00,WSDL version 420,2013-05-03 20:04:00,
2013-05-03 16:09:00,90.1,63.0,29.62,ESE,109,1.0,5.6,41,0.00,,,0.00,WSDL version 420,2013-05-03 20:09:00,
2013-05-03 16:14:00,90.3,63.3,29.62,SSW,212,0.8,2.9,40,0.00,,,0.00,WSDL version 420,2013-05-03 20:14:00,
2013-05-03 16:19:00,90.1,62.3,29.62,WSW,248,0.4,3.1,40,0.00,,,0.00,WSDL version 420,2013-05-03 20:19:00,
2013-05-03 16:24:00,90.0,62.6,29.62,North,356,0.4,3.1,40,0.00,,,0.00,WSDL version 420,2013-05-03 20:24:00,
2013-05-03 16:29:00,89.8,62.1,29.62,ENE,72,1.3,2.7,40,0.00,,,0.00,WSDL version 420,2013-05-03 20:29:00,
2013-05-03 16:34:00,90.1,62.7,29.62,SW,225,0.0,2.7,39,0.00,,,0.00,WSDL version 420,2013-05-03 20:34:00,
2013-05-03 16:39:00,90.0,61.7,29.62,SW,225,0.0,2.7,40,0.00,,,0.00,WSDL version 420,2013-05-03 20:39:00,
2013-05-03 16:44:00,90.1,62.3,29.62,SW,225,0.0,0.0,39,0.00,,,0.00,WSDL version 420,2013-05-03 20:44:00,
2013-05-03 16:49:00,89.8,61.5,29.62,North,0,0.0,0.0,39,0.00,,,0.00,WSDL version 420,2013-05-03 20:49:00,
2013-05-03 16:54:00,90.0,62.2,29.62,South,180,1.6,0.0,40,0.00,,,0.00,WSDL version 420,2013-05-03 20:54:00,
2013-05-03 16:59:00,89.9,62.2,29.62,SSE,158,1.6,3.1,40,0.00,,,0.00,WSDL version 420,2013-05-03 20:59:00,
2013-05-03 17:04:00,90.2,62.6,29.62,South,180,0.0,3.1,40,0.00,,,0.00,WSDL version 420,2013-05-03 21:04:00,
2013-05-03 17:09:00,90.3,62.3,29.62,South,169,1.2,3.1,39,0.00,,,0.00,WSDL version 420,2013-05-03 21:09:00,
2013-05-03 17:14:00,90.5,62.9,29.62,South,180,2.0,3.1,40,0.00,,,0.00,WSDL version 420,2013-05-03 21:14:00,
2013-05-03 17:19:00,90.8,63.2,29.62,SSE,158,2.9,4.9,39,0.00,,,0.00,WSDL version 420,2013-05-03 21:19:00,
2013-05-03 17:24:00,90.3,61.7,29.62,SSE,158,2.9,4.9,38,0.00,,,0.00,WSDL version 420,2013-05-03 21:24:00,
2013-05-03 17:29:00,89.2,61.1,29.62,North,0,0.0,4.9,39,0.00,,,0.00,WSDL version 420,2013-05-03 21:29:00,
2013-05-03 17:34:00,89.2,60.5,29.62,West,270,0.0,4.9,38,0.00,,,0.00,WSDL version 420,2013-05-03 21:34:00,
2013-05-03 17:39:00,88.8,60.3,29.62,West,270,0.0,0.0,38,0.00,,,0.00,WSDL version 420,2013-05-03 21:39:00,
2013-05-03 17:44:00,88.7,61.1,29.62,South,180,0.0,2.7,40,0.00,,,0.00,WSDL version 420,2013-05-03 21:44:00,
2013-05-03 17:49:00,88.5,60.4,29.59,South,180,0.0,2.7,39,0.00,,,0.00,WSDL version 420,2013-05-03 21:49:00,
2013-05-03 17:54:00,87.9,60.1,29.59,South,180,0.0,2.7,40,0.00,,,0.00,WSDL version 420,2013-05-03 21:54:00,
2013-05-03 17:59:00,86.8,59.6,29.59,South,180,0.0,2.7,40,0.00,,,0.00,WSDL version 420,2013-05-03 21:59:00,
2013-05-03 18:04:00,86.0,59.4,29.62,South,180,0.0,0.0,41,0.00,,,0.00,WSDL version 420,2013-05-03 22:04:00,
2013-05-03 18:09:00,85.0,58.9,29.62,South,180,0.0,0.0,42,0.00,,,0.00,WSDL version 420,2013-05-03 22:09:00,
2013-05-03 18:14:00,84.5,59.4,29.62,North,0,0.0,0.0,43,0.00,,,0.00,WSDL version 420,2013-05-03 22:14:00,
2013-05-03 18:19:00,83.8,60.4,29.62,North,0,0.0,0.0,46,0.00,,,0.00,WSDL version 420,2013-05-03 22:19:00,
2013-05-03 18:24:00,83.1,61.0,29.62,North,-999,-999.0,-999.0,48,0.00,,,0.00,WSDL version 420,2013-05-03 22:24:00,
2013-05-03 18:29:00,82.6,61.5,29.62,North,-999,-999.0,-999.0,49,0.00,,,0.00,WSDL version 420,2013-05-03 22:29:00,
2013-05-03 18:34:00,82.1,61.9,29.62,North,-999,-999.0,-999.0,51,0.00,,,0.00,WSDL version 420,2013-05-03 22:34:00,
2013-05-03 18:39:00,81.9,62.3,29.62,North,-999,-999.0,-999.0,52,0.00,,,0.00,WSDL version 420,2013-05-03 22:39:00,
2013-05-03 18:44:00,81.9,62.7,29.62,WNW,293,1.3,1.6,53,0.00,,,0.00,WSDL version 420,2013-05-03 22:44:00,
2013-05-03 18:49:00,81.6,62.9,29.62,South,180,2.7,4.5,53,0.00,,,0.00,WSDL version 420,2013-05-03 22:49:00,
2013-05-03 18:54:00,81.1,62.8,29.62,South,180,2.7,4.5,54,0.00,,,0.00,WSDL version 420,2013-05-03 22:54:00,
2013-05-03 18:59:00,80.2,62.5,29.62,South,180,2.7,4.5,55,0.00,,,0.00,WSDL version 420,2013-05-03 22:59:00,
2013-05-03 19:04:00,79.5,62.3,29.62,South,180,2.7,4.5,56,0.00,,,0.00,WSDL version 420,2013-05-03 23:04:00,
2013-05-03 19:09:00,78.7,62.2,29.62,North,0,0.0,4.5,57,0.00,,,0.00,WSDL version 420,2013-05-03 23:09:00,
2013-05-03 19:14:00,78.1,62.6,29.62,North,-999,-999.0,-999.0,59,0.00,,,0.00,WSDL version 420,2013-05-03 23:14:00,
2013-05-03 19:19:00,77.5,62.5,29.62,South,180,0.9,2.0,60,0.00,,,0.00,WSDL version 420,2013-05-03 23:19:00,
2013-05-03 19:24:00,77.2,62.8,29.62,South,180,2.5,3.1,62,0.00,,,0.00,WSDL version 420,2013-05-03 23:24:00,
2013-05-03 19:29:00,76.9,63.0,29.62,South,180,2.5,3.1,63,0.00,,,0.00,WSDL version 420,2013-05-03 23:29:00,
2013-05-03 19:34:00,76.2,64.2,29.65,South,180,2.5,3.1,67,0.17,,,0.17,WSDL version 420,2013-05-03 23:34:00,
2013-05-03 19:39:00,75.1,64.0,29.65,North,0,0.0,3.1,69,0.37,,,0.37,WSDL version 420,2013-05-03 23:39:00,
2013-05-03 19:44:00,74.4,63.9,29.65,North,0,0.0,3.1,70,0.58,,,0.58,WSDL version 420,2013-05-03 23:44:00,
2013-05-03 19:49:00,74.0,64.1,29.65,North,-999,-999.0,-999.0,72,0.62,,,0.62,WSDL version 420,2013-05-03 23:49:00,
2013-05-03 19:54:00,73.8,64.6,29.65,North,-999,-999.0,-999.0,73,0.62,,,0.62,WSDL version 420,2013-05-03 23:54:00,
2013-05-03 19:59:00,73.5,64.3,29.65,North,-999,-999.0,-999.0,73,0.62,,,0.62,WSDL version 420,2013-05-03 23:59:00,
2013-05-03 20:04:00,73.0,64.1,29.65,South,180,2.5,0.0,74,0.62,,,0.62,WSDL version 420,2013-05-04 00:04:00,
2013-05-03 20:09:00,72.8,64.4,29.65,South,180,0.0,0.0,75,0.62,,,0.62,WSDL version 420,2013-05-04 00:09:00,
2013-05-03 20:14:00,72.6,64.4,29.65,SW,225,0.0,0.0,76,0.62,,,0.62,WSDL version 420,2013-05-04 00:14:00,
2013-05-03 20:19:00,72.3,64.5,29.62,WNW,293,0.0,0.0,77,0.62,,,0.62,WSDL version 420,2013-05-04 00:19:00,
2013-05-03 20:24:00,72.3,64.6,29.62,SW,225,0.0,0.0,77,0.62,,,0.62,WSDL version 420,2013-05-04 00:24:00,
2013-05-03 20:29:00,72.1,64.6,29.62,South,180,0.0,0.0,78,0.62,,,0.62,WSDL version 420,2013-05-04 00:29:00,
2013-05-03 20:34:00,72.1,64.9,29.65,South,180,0.0,0.0,78,0.45,,,0.62,WSDL version 420,2013-05-04 00:34:00,
2013-05-03 20:39:00,72.1,65.2,29.65,South,180,2.2,0.0,79,0.25,,,0.62,WSDL version 420,2013-05-04 00:39:00,
2013-05-03 20:44:00,72.0,65.1,29.65,SSW,203,0.0,0.0,79,0.04,,,0.62,WSDL version 420,2013-05-04 00:44:00,
2013-05-03 20:49:00,72.0,65.1,29.65,SSW,203,0.0,0.0,79,0.00,,,0.62,WSDL version 420,2013-05-04 00:49:00,
2013-05-03 20:54:00,71.8,65.0,29.65,SW,225,1.3,0.0,79,0.00,,,0.62,WSDL version 420,2013-05-04 00:54:00,
2013-05-03 20:59:00,71.8,65.3,29.65,SW,225,1.3,0.0,80,0.00,,,0.62,WSDL version 420,2013-05-04 00:59:00,
2013-05-03 21:04:00,71.6,65.1,29.65,SW,225,1.3,0.0,80,0.00,,,0.62,WSDL version 420,2013-05-04 01:04:00,
2013-05-03 21:09:00,71.6,65.1,29.65,North,0,0.0,0.0,80,0.00,,,0.62,WSDL version 420,2013-05-04 01:09:00,
2013-05-03 21:14:00,71.5,65.3,29.65,North,0,0.0,0.0,81,0.00,,,0.62,WSDL version 420,2013-05-04 01:14:00,
2013-05-03 21:19:00,71.4,65.3,29.68,North,-999,-999.0,-999.0,81,0.00,,,0.62,WSDL version 420,2013-05-04 01:19:00,
2013-05-03 21:24:00,71.2,65.2,29.68,South,180,0.0,0.0,81,0.00,,,0.62,WSDL version 420,2013-05-04 01:24:00,
2013-05-03 21:29:00,71.2,65.3,29.68,NW,311,0.0,0.0,81,0.00,,,0.62,WSDL version 420,2013-05-04 01:29:00,
2013-05-03 21:34:00,71.2,65.5,29.68,NW,309,0.0,0.0,82,0.00,,,0.62,WSDL version 420,2013-05-04 01:34:00,
2013-05-03 21:39:00,71.1,65.4,29.68,West,270,0.0,0.0,82,0.00,,,0.62,WSDL version 420,2013-05-04 01:39:00,
2013-05-03 21:44:00,71.1,65.8,29.68,West,270,0.0,0.0,83,0.00,,,0.62,WSDL version 420,2013-05-04 01:44:00,
2013-05-03 21:49:00,71.1,65.8,29.68,West,270,0.0,0.0,83,-99.99,,,-99.99,WSDL version 420,2013-05-04 01:49:00,
2013-05-03 21:54:00,71.1,65.8,29.68,South,180,0.0,0.0,83,0.00,,,0.62,WSDL version 420,2013-05-04 01:54:00,
2013-05-03 21:59:00,71.0,65.9,29.68,South,180,0.0,0.0,84,0.00,,,0.62,WSDL version 420,2013-05-04 01:59:00,
2013-05-03 22:04:00,70.9,65.6,29.68,South,180,0.0,0.0,83,-99.99,,,-99.99,WSDL version 420,2013-05-04 02:04:00,
2013-05-03 22:09:00,70.9,66.0,29.68,SW,231,0.0,0.0,84,-99.99,,,-99.99,WSDL version 420,2013-05-04 02:09:00,
2013-05-03 22:14:00,70.9,66.0,29.68,NW,315,0.0,0.0,84,0.00,,,0.62,WSDL version 420,2013-05-04 02:14:00,
2013-05-03 22:19:00,70.7,65.8,29.68,North,0,0.0,0.0,84,0.00,,,0.62,WSDL version 420,2013-05-04 02:19:00,
2013-05-03 22:24:00,70.7,66.2,29.68,North,0,0.0,0.0,86,0.00,,,0.62,WSDL version 420,2013-05-04 02:24:00,
2013-05-03 22:29:00,70.7,66.2,29.68,NW,315,0.0,0.0,86,0.00,,,0.62,WSDL version 420,2013-05-04 02:29:00,
2013-05-03 22:34:00,70.7,66.2,29.68,NW,315,0.0,0.0,86,0.00,,,0.62,WSDL version 420,2013-05-04 02:34:00,
2013-05-03 22:39:00,70.7,66.5,29.68,North,0,0.0,0.0,87,0.00,,,0.62,WSDL version 420,2013-05-04 02:39:00,
2013-05-03 22:44:00,70.7,66.5,29.68,NW,315,0.0,0.0,87,0.00,,,0.62,WSDL version 420,2013-05-04 02:44:00,
2013-05-03 22:49:00,70.7,66.5,29.68,North,0,0.0,0.0,87,0.00,,,0.62,WSDL version 420,2013-05-04 02:49:00,
2013-05-03 22:54:00,70.7,66.5,29.68,North,-999,-999.0,-999.0,87,-99.99,,,-99.99,WSDL version 420,2013-05-04 02:54:00,
2013-05-03 22:59:00,70.7,66.5,29.68,North,-999,-999.0,-999.0,87,0.00,,,0.62,WSDL version 420,2013-05-04 02:59:00,
2013-05-03 23:04:00,70.5,66.4,29.65,North,-999,-999.0,-999.0,87,0.00,,,0.62,WSDL version 420,2013-05-04 03:04:00,
2013-05-03 23:09:00,70.5,66.4,29.65,North,-999,-999.0,-999.0,88,0.00,,,0.62,WSDL version 420,2013-05-04 03:09:00,
2013-05-03 23:14:00,70.5,66.7,29.65,North,-999,-999.0,-999.0,88,0.00,,,0.62,WSDL version 420,2013-05-04 03:14:00,
2013-05-03 23:19:00,70.4,66.6,29.68,North,-999,-999.0,-999.0,88,0.00,,,0.62,WSDL version 420,2013-05-04 03:19:00,
2013-05-03 23:24:00,70.3,66.5,29.68,North,-999,-999.0,-999.0,88,0.00,,,0.62,WSDL version 420,2013-05-04 03:24:00,
2013-05-03 23:29:00,70.3,66.5,29.68,North,-999,-999.0,-999.0,88,0.00,,,0.62,WSDL version 420,2013-05-04 03:29:00,
2013-05-03 23:34:00,70.2,66.4,29.65,North,-999,-999.0,-999.0,88,0.00,,,0.62,WSDL version 420,2013-05-04 03:34:00,
2013-05-03 23:39:00,70.2,66.4,29.65,North,-999,-999.0,-999.0,88,-99.99,,,-99.99,WSDL version 420,2013-05-04 03:39:00,
2013-05-03 23:44:00,70.2,66.4,29.65,North,-999,-999.0,-999.0,88,-99.99,,,-99.99,WSDL version 420,2013-05-04 03:44:00,
2013-05-03 23:49:00,70.1,66.3,29.68,North,-999,-999.0,-999.0,88,-99.99,,,-99.99,WSDL version 420,2013-05-04 03:49:00,
2013-05-03 23:54:00,70.0,66.2,29.68,North,-999,-999.0,-999.0,88,0.00,,,0.62,WSDL version 420,2013-05-04 03:54:00,
2013-05-03 23:59:00,70.0,66.2,29.68,North,-999,-999.0,-999.0,88,0.00,,,0.62,WSDL version 420,2013-05-04 03:59:00,